Dyer, Indiana
Current Conditions -  °F | °C
As of 3:35 PM on Monday 24 Nov 2014 (Local Time) from KIGQ Reporting Station
Drizzle Drizzle  
Wind Chill: 18°   Ceiling: 1300
Heat Index: 31°   Visibility: 7mi
Dew Point: 28°   Wind: 26mph
Humidity: 88%   Direction: 250°WSW
Pressure: 29.56"   Gusts: 37mph
Location:  41.49°N, 87.52°W
Report Text: KIGQ 242135Z AUTO 25023G32KT 7SM -DZ OVC013 00/M02 A2956 RMK AO2 T10031021
Loading
Personal Weather Stations






























Interactive Weather Map New forecast layout! Learn more

10-Day Weather Forecast

Advertisements
Track Severe Weather on mobile